Time;durP1;ratioP1;P1;durP2;ratioP2;P2;SDS_P1;SDS_P2;PMS_P1;PMS_P2;Temp;Humidity;BMP_temperature;BMP_pressure;BME280_temperature;BME280_humidity;BME280_pressure;Samples;Min_cycle;Max_cycle;Signal;HPM_P1;HPM_P2
2024/02/02 00:02:01;;;;;;;20.85;3.75;;;;;;;10.78;70.83;103147.78;5030272;28;20033;-47
2024/02/02 00:04:27;;;;;;;23.40;4.20;;;;;;;10.84;70.48;103143.75;5029786;28;20029;-48
2024/02/02 00:06:52;;;;;;;23.02;3.83;;;;;;;10.65;71.16;103151.50;5028606;28;20060;-49
2024/02/02 00:09:17;;;;;;;22.00;3.83;;;;;;;10.47;72.06;103164.53;5029604;28;20076;-49
2024/02/02 00:11:43;;;;;;;17.83;4.25;;;;;;;10.56;71.93;103157.13;5030062;28;20045;-48
2024/02/02 00:14:08;;;;;;;19.45;3.60;;;;;;;10.71;71.38;103157.00;5029971;28;20049;-48
2024/02/02 00:16:34;;;;;;;20.80;3.90;;;;;;;10.83;71.06;103160.22;5029066;28;20088;-50
2024/02/02 00:18:59;;;;;;;23.70;4.57;;;;;;;10.71;71.17;103164.84;5029493;28;20041;-48
2024/02/02 00:21:24;;;;;;;21.85;4.78;;;;;;;10.78;70.67;103169.56;5029521;28;20037;-47
2024/02/02 00:23:50;;;;;;;28.98;5.18;;;;;;;10.01;74.32;103169.06;5030026;28;20488;-49
2024/02/02 00:26:15;;;;;;;25.75;5.13;;;;;;;10.13;74.02;103172.28;5029291;28;20053;-46
2024/02/02 00:28:40;;;;;;;28.05;5.68;;;;;;;9.86;74.79;103177.78;5029840;28;20057;-46
2024/02/02 00:31:06;;;;;;;25.20;4.97;;;;;;;10.28;73.42;103171.34;5029927;28;20026;-45
2024/02/02 00:33:31;;;;;;;27.63;5.30;;;;;;;10.21;73.96;103162.31;5029437;28;20462;-47
2024/02/02 00:35:57;;;;;;;20.42;4.57;;;;;;;10.34;73.09;103136.03;5029719;28;20038;-46
2024/02/02 00:38:22;;;;;;;20.88;5.00;;;;;;;10.54;72.24;103143.16;5027411;28;20037;-46
2024/02/02 00:40:48;;;;;;;27.33;5.80;;;;;;;10.16;73.89;103137.69;5029451;28;20098;-46
2024/02/02 00:43:13;;;;;;;27.17;5.13;;;;;;;10.41;73.32;103142.47;5029305;28;20116;-46
2024/02/02 00:45:39;;;;;;;22.38;5.15;;;;;;;10.60;71.96;103144.28;5029362;28;20119;-47
2024/02/02 00:48:04;;;;;;;23.05;5.15;;;;;;;10.25;72.34;103151.19;5028955;28;20034;-49
2024/02/02 00:50:30;;;;;;;29.45;6.07;;;;;;;10.00;74.32;103145.53;5028909;28;20519;-47
2024/02/02 00:52:55;;;;;;;28.63;5.45;;;;;;;10.22;74.14;103139.75;5029714;28;20030;-48
2024/02/02 00:55:21;;;;;;;18.67;4.53;;;;;;;10.41;72.97;103130.31;5029017;28;20038;-48
2024/02/02 00:57:47;;;;;;;24.83;5.45;;;;;;;10.18;73.19;103136.09;5029032;28;20528;-47
2024/02/02 01:00:12;;;;;;;26.27;5.97;;;;;;;10.49;72.73;103133.31;5029263;28;20087;-49
2024/02/02 01:02:41;;;;;;;23.58;5.55;;;;;;;10.29;72.72;103123.59;5029581;28;20033;-48
2024/02/02 01:05:08;;;;;;;22.15;5.20;;;;;;;10.14;74.08;103115.84;5030180;28;20052;-49
2024/02/02 01:07:34;;;;;;;21.85;4.75;;;;;;;10.25;73.38;103114.69;5034473;28;20032;-47
2024/02/02 01:09:59;;;;;;;22.15;5.40;;;;;;;10.18;73.71;103117.84;5034072;28;20038;-47
2024/02/02 01:12:24;;;;;;;26.50;5.80;;;;;;;10.13;73.41;103124.47;5035838;28;20033;-48
2024/02/02 01:14:50;;;;;;;27.73;5.25;;;;;;;10.16;73.36;103124.66;5036973;28;20495;-48
2024/02/02 01:17:15;;;;;;;26.45;5.07;;;;;;;10.31;72.92;103119.31;5034957;28;20446;-47
2024/02/02 01:19:41;;;;;;;27.02;5.35;;;;;;;10.60;71.84;103115.56;5035336;28;20527;-49
2024/02/02 01:22:06;;;;;;;24.27;5.43;;;;;;;10.56;71.80;103119.72;5035547;28;20482;-49
2024/02/02 01:24:31;;;;;;;29.42;5.53;;;;;;;10.77;71.20;103106.84;5033834;28;20056;-47
2024/02/02 01:26:57;;;;;;;28.48;6.20;;;;;;;9.99;73.56;103108.16;5033146;28;20088;-49
2024/02/02 01:29:24;;;;;;;25.98;5.57;;;;;;;10.64;71.55;103097.53;5032245;28;20120;-47
2024/02/02 01:31:49;;;;;;;21.05;5.82;;;;;;;10.76;71.11;103099.84;5032538;28;20037;-49
2024/02/02 01:34:15;;;;;;;24.67;5.70;;;;;;;10.53;71.90;103091.81;5032701;28;20040;-47
2024/02/02 01:36:40;;;;;;;27.38;5.93;;;;;;;10.29;72.37;103090.59;5032648;28;20514;-50
2024/02/02 01:39:10;;;;;;;31.23;6.32;;;;;;;10.02;73.74;103078.75;5032468;28;20048;-51
2024/02/02 01:41:39;;;;;;;30.02;6.00;;;;;;;10.57;71.76;103069.34;5032527;28;20488;-48
2024/02/02 01:44:05;;;;;;;26.75;5.40;;;;;;;10.53;71.63;103059.59;5033084;28;20183;-46
2024/02/02 01:46:31;;;;;;;22.92;5.63;;;;;;;10.21;73.09;103052.81;5031626;28;20100;-48
2024/02/02 01:48:57;;;;;;;29.45;5.40;;;;;;;10.66;71.46;103051.56;5031220;28;20125;-48
2024/02/02 01:51:23;;;;;;;24.00;5.47;;;;;;;10.37;71.78;103050.13;5032708;28;20030;-45
2024/02/02 01:53:49;;;;;;;20.92;5.00;;;;;;;10.35;72.26;103056.09;5033243;28;20045;-46
2024/02/02 01:56:14;;;;;;;29.02;5.90;;;;;;;10.29;72.87;103056.72;5032315;28;20168;-50
2024/02/02 01:58:40;;;;;;;26.42;5.80;;;;;;;10.12;72.84;103054.94;5032964;28;20048;-46
2024/02/02 02:01:05;;;;;;;22.70;5.07;;;;;;;10.73;71.40;103037.09;5033273;28;20044;-50
2024/02/02 02:03:31;;;;;;;25.95;4.93;;;;;;;10.50;71.16;103028.16;5032514;28;20487;-47
2024/02/02 02:05:57;;;;;;;21.83;4.78;;;;;;;10.49;71.61;103036.81;5033086;28;20045;-46
2024/02/02 02:08:22;;;;;;;25.05;5.13;;;;;;;10.32;71.76;103035.97;5032264;28;20512;-46
2024/02/02 02:10:48;;;;;;;23.92;5.00;;;;;;;10.55;71.72;103037.97;5032798;28;20037;-47
2024/02/02 02:13:13;;;;;;;22.27;4.72;;;;;;;10.55;71.47;103037.97;5032089;28;20026;-49
2024/02/02 02:15:39;;;;;;;21.50;4.85;;;;;;;10.72;70.21;103030.06;5032054;28;20045;-50
2024/02/02 02:18:04;;;;;;;21.15;4.45;;;;;;;10.27;72.07;103034.88;5030639;28;20431;-46
2024/02/02 02:20:30;;;;;;;23.50;4.50;;;;;;;10.44;71.20;103028.75;5031730;28;20037;-48
2024/02/02 02:22:55;;;;;;;25.33;4.45;;;;;;;10.31;71.52;103034.19;5032034;28;20095;-53
2024/02/02 02:25:21;;;;;;;25.65;4.90;;;;;;;10.29;72.05;103028.03;5031609;28;20029;-47
2024/02/02 02:27:46;;;;;;;24.77;4.50;;;;;;;10.15;72.18;103029.03;5030818;28;20404;-47
2024/02/02 02:30:13;;;;;;;25.90;4.65;;;;;;;10.08;72.37;103034.75;5030413;28;20063;-49
2024/02/02 02:32:39;;;;;;;23.63;4.63;;;;;;;10.11;72.07;103030.59;5031611;28;20116;-46
2024/02/02 02:35:04;;;;;;;20.58;4.20;;;;;;;10.11;72.46;103016.66;5031723;28;20161;-46
2024/02/02 02:37:30;;;;;;;26.42;4.32;;;;;;;10.32;71.39;103022.06;5030892;28;20041;-48
2024/02/02 02:39:56;;;;;;;21.27;4.20;;;;;;;10.06;71.27;103018.16;5031858;28;20117;-46
2024/02/02 02:42:21;;;;;;;23.73;4.53;;;;;;;9.92;71.75;103022.69;5031173;28;20040;-47
2024/02/02 02:44:46;;;;;;;19.10;3.90;;;;;;;10.34;70.79;103017.81;5031447;28;20137;-50
2024/02/02 02:47:12;;;;;;;18.15;4.32;;;;;;;10.45;69.83;103019.22;5030511;28;20040;-47
2024/02/02 02:49:38;;;;;;;17.48;3.95;;;;;;;10.35;69.89;103007.47;5031568;28;20411;-50
2024/02/02 02:52:04;;;;;;;16.80;3.80;;;;;;;10.32;69.95;103011.63;5031448;28;20049;-48
2024/02/02 02:54:29;;;;;;;19.45;3.90;;;;;;;10.18;70.33;103016.19;5031406;28;20087;-47
2024/02/02 02:56:55;;;;;;;21.40;4.00;;;;;;;10.32;70.47;103012.50;5031363;28;20043;-49
2024/02/02 02:59:21;;;;;;;25.40;4.05;;;;;;;10.18;70.18;103020.50;5030544;28;20040;-50
2024/02/02 03:01:47;;;;;;;23.08;4.30;;;;;;;10.20;70.28;103013.63;5031379;28;20034;-48
2024/02/02 03:04:13;;;;;;;23.42;3.72;;;;;;;10.49;69.26;103001.16;5030781;28;20480;-49
2024/02/02 03:06:38;;;;;;;17.40;3.47;;;;;;;10.31;69.74;103007.22;5029612;28;20109;-47
2024/02/02 03:09:04;;;;;;;21.52;4.00;;;;;;;10.05;70.15;103009.44;5030999;28;20037;-49
2024/02/02 03:11:30;;;;;;;21.55;3.83;;;;;;;10.15;70.89;103010.78;5030658;28;20087;-46
2024/02/02 03:13:55;;;;;;;24.15;4.13;;;;;;;10.10;71.14;103004.44;5031112;28;20057;-50
2024/02/02 03:16:21;;;;;;;25.30;4.75;;;;;;;10.16;71.13;102996.94;5030527;28;20041;-48
2024/02/02 03:18:46;;;;;;;26.02;4.07;;;;;;;10.35;70.75;103003.97;5030870;28;20091;-48
2024/02/02 03:21:11;;;;;;;25.15;4.18;;;;;;;9.97;71.41;102983.81;5030654;28;20503;-49
2024/02/02 03:23:37;;;;;;;21.92;4.43;;;;;;;9.98;71.36;102977.78;5031158;28;20511;-46
2024/02/02 03:26:02;;;;;;;22.50;4.65;;;;;;;9.71;72.96;102972.09;5030865;28;20037;-48
2024/02/02 03:28:27;;;;;;;20.75;4.50;;;;;;;9.71;72.82;102965.16;5029625;28;20033;-49
2024/02/02 03:30:53;;;;;;;21.98;4.18;;;;;;;10.27;70.63;102959.28;5030851;28;20706;-48
2024/02/02 03:33:18;;;;;;;23.17;4.43;;;;;;;10.10;71.47;102958.44;5032463;28;20508;-48
2024/02/02 03:35:43;;;;;;;24.10;4.13;;;;;;;9.87;72.64;102968.56;5032174;28;20063;-47
2024/02/02 03:38:09;;;;;;;23.88;4.75;;;;;;;10.06;71.33;102966.03;5031610;28;20077;-50
2024/02/02 03:40:34;;;;;;;24.05;4.03;;;;;;;10.26;71.24;102964.41;5031809;28;20068;-48
2024/02/02 03:43:00;;;;;;;27.55;4.00;;;;;;;10.26;70.80;102956.59;5031112;28;20036;-46
2024/02/02 03:45:25;;;;;;;26.92;4.07;;;;;;;10.00;71.29;102964.00;5030303;28;20057;-46
2024/02/02 03:47:51;;;;;;;28.50;4.10;;;;;;;9.71;72.50;102964.28;5030237;28;20596;-46
2024/02/02 03:50:16;;;;;;;26.15;4.00;;;;;;;10.01;72.15;102962.28;5029965;28;20061;-47
2024/02/02 03:52:41;;;;;;;22.67;4.20;;;;;;;10.08;71.76;102961.78;5030896;28;20042;-48
2024/02/02 03:55:07;;;;;;;23.30;4.30;;;;;;;10.16;71.54;102956.16;5030525;28;20083;-45
2024/02/02 03:57:33;;;;;;;21.00;4.07;;;;;;;10.25;71.55;102953.06;5029308;28;20037;-46
2024/02/02 03:59:59;;;;;;;25.83;3.80;;;;;;;10.56;70.43;102952.81;5030373;28;20033;-48
2024/02/02 04:02:24;;;;;;;18.83;3.38;;;;;;;10.33;70.84;102943.03;5029803;28;20092;-49
2024/02/02 04:04:49;;;;;;;21.05;4.20;;;;;;;10.33;70.46;102937.81;5030249;28;20036;-47
2024/02/02 04:07:15;;;;;;;18.88;3.58;;;;;;;9.81;72.33;102947.41;5029272;28;20068;-46
2024/02/02 04:09:40;;;;;;;21.38;3.92;;;;;;;10.32;71.58;102942.13;5030476;28;20037;-48
2024/02/02 04:12:06;;;;;;;18.33;3.90;;;;;;;9.97;72.28;102934.31;5030508;28;20040;-49
2024/02/02 04:14:31;;;;;;;18.08;3.85;;;;;;;10.27;71.07;102937.50;5030066;28;20120;-46
2024/02/02 04:16:56;;;;;;;17.10;3.45;;;;;;;10.30;71.02;102930.75;5030058;28;20063;-45
2024/02/02 04:19:22;;;;;;;26.73;4.13;;;;;;;10.16;71.51;102929.16;5029447;28;20042;-47
2024/02/02 04:21:47;;;;;;;23.10;3.65;;;;;;;10.20;71.14;102925.00;5029952;28;20033;-48
2024/02/02 04:24:13;;;;;;;24.83;3.55;;;;;;;10.16;72.25;102929.16;5029329;28;20041;-46
2024/02/02 04:26:38;;;;;;;26.90;3.60;;;;;;;10.35;71.44;102934.47;5029669;28;20489;-49
2024/02/02 04:29:04;;;;;;;16.65;3.42;;;;;;;10.09;71.53;102933.19;5029543;28;20044;-47
2024/02/02 04:31:30;;;;;;;18.98;3.80;;;;;;;10.33;71.13;102938.69;5029348;28;20500;-46
2024/02/02 04:33:55;;;;;;;22.90;3.63;;;;;;;10.03;72.21;102945.03;5029771;28;20037;-46
2024/02/02 04:36:20;;;;;;;19.75;3.47;;;;;;;10.27;71.21;102934.91;5029280;28;20037;-48
2024/02/02 04:38:46;;;;;;;21.58;3.60;;;;;;;10.09;72.40;102930.56;5029769;28;20037;-46
2024/02/02 04:41:11;;;;;;;19.67;3.30;;;;;;;9.85;72.39;102926.78;5028602;28;20581;-48
2024/02/02 04:43:37;;;;;;;24.73;3.67;;;;;;;10.13;72.12;102922.06;5029611;28;20087;-48
2024/02/02 04:46:02;;;;;;;17.38;3.95;;;;;;;10.10;72.22;102910.63;5029732;28;20065;-47
2024/02/02 04:48:27;;;;;;;23.00;3.70;;;;;;;10.00;72.25;102908.41;5028728;28;20038;-48
2024/02/02 04:50:53;;;;;;;17.63;3.22;;;;;;;10.16;72.08;102901.41;5029645;28;20052;-47
2024/02/02 04:53:18;;;;;;;19.75;3.67;;;;;;;10.05;72.07;102910.41;5029316;28;20172;-46
2024/02/02 04:55:43;;;;;;;21.58;3.70;;;;;;;10.20;71.23;102907.66;5029630;28;20080;-47
2024/02/02 04:58:09;;;;;;;21.45;3.22;;;;;;;10.44;71.11;102902.69;5029103;28;20041;-45
2024/02/02 05:00:35;;;;;;;24.60;3.45;;;;;;;9.95;73.26;102915.09;5029485;28;20119;-50
2024/02/02 05:03:01;;;;;;;26.70;3.92;;;;;;;10.00;71.96;102909.28;5029281;28;20041;-44
2024/02/02 05:05:26;;;;;;;23.05;3.72;;;;;;;9.68;73.40;102912.94;5029153;28;20033;-48
2024/02/02 05:07:51;;;;;;;18.98;2.97;;;;;;;10.32;71.82;102903.03;5029393;28;20128;-48
2024/02/02 05:10:17;;;;;;;22.55;3.30;;;;;;;10.31;72.00;102896.00;5029807;28;20045;-47
2024/02/02 05:12:42;;;;;;;27.92;3.25;;;;;;;10.24;72.11;102893.06;5030407;28;20041;-49
2024/02/02 05:15:08;;;;;;;25.70;3.65;;;;;;;10.41;71.97;102893.03;5032268;28;20040;-45
2024/02/02 05:17:33;;;;;;;18.65;2.97;;;;;;;10.41;72.16;102895.63;5032317;28;20127;-50
2024/02/02 05:19:59;;;;;;;21.90;3.03;;;;;;;10.12;73.01;102894.22;5030915;28;20083;-46
2024/02/02 05:22:24;;;;;;;26.55;3.30;;;;;;;10.26;72.93;102891.41;5029115;28;20049;-47
2024/02/02 05:24:50;;;;;;;21.38;2.88;;;;;;;10.24;72.50;102886.16;5029478;28;20064;-48
2024/02/02 05:27:16;;;;;;;20.83;3.30;;;;;;;10.00;73.69;102884.97;5029048;28;20068;-48
2024/02/02 05:29:44;;;;;;;19.55;3.42;;;;;;;10.46;72.35;102888.03;5037015;28;20120;-49
2024/02/02 05:32:09;;;;;;;26.40;3.42;;;;;;;10.40;73.11;102886.03;5029302;28;20037;-47
2024/02/02 05:34:35;;;;;;;20.02;2.85;;;;;;;10.56;71.91;102901.53;5028925;28;20397;-49
2024/02/02 05:37:01;;;;;;;19.38;3.17;;;;;;;10.34;72.74;102896.16;5028748;28;20069;-48
2024/02/02 05:39:26;;;;;;;23.88;3.38;;;;;;;10.26;73.33;102900.13;5028994;28;20038;-46
2024/02/02 05:41:51;;;;;;;21.00;3.38;;;;;;;10.18;73.52;102898.91;5029005;28;20034;-47
2024/02/02 05:44:17;;;;;;;23.13;3.85;;;;;;;10.24;73.35;102898.28;5028783;28;20087;-46
2024/02/02 05:46:42;;;;;;;23.58;3.25;;;;;;;10.21;73.65;102890.31;5028933;28;20401;-48
2024/02/02 05:49:07;;;;;;;28.15;3.58;;;;;;;10.02;74.33;102894.63;5028776;28;20049;-50
2024/02/02 05:51:33;;;;;;;23.52;3.55;;;;;;;9.92;74.45;102888.91;5029143;28;20137;-47
2024/02/02 05:53:58;;;;;;;24.65;2.97;;;;;;;9.90;75.21;102900.94;5032726;28;20041;-47
2024/02/02 05:56:23;;;;;;;23.63;3.45;;;;;;;10.49;72.78;102896.00;5031746;28;20033;-46
2024/02/02 05:58:49;;;;;;;22.27;3.40;;;;;;;10.04;74.37;102897.31;5032389;28;20061;-49
2024/02/02 06:01:14;;;;;;;28.60;3.35;;;;;;;10.41;73.03;102903.47;5031991;28;20033;-48
2024/02/02 06:03:40;;;;;;;27.85;2.97;;;;;;;9.87;73.81;102896.50;5032559;28;20040;-50
2024/02/02 06:06:05;;;;;;;21.52;3.30;;;;;;;10.65;72.43;102901.06;5032636;28;20038;-47
2024/02/02 06:08:31;;;;;;;26.20;3.33;;;;;;;10.64;72.15;102896.69;5031314;28;20037;-49
2024/02/02 06:10:56;;;;;;;24.38;3.58;;;;;;;10.38;72.78;102899.78;5032508;28;20091;-46
2024/02/02 06:13:21;;;;;;;22.98;3.10;;;;;;;10.09;74.84;102901.00;5032038;28;20049;-49
2024/02/02 06:15:47;;;;;;;23.23;3.15;;;;;;;10.06;74.08;102900.88;5032744;28;20407;-49
2024/02/02 06:18:15;;;;;;;20.42;3.25;;;;;;;10.25;73.66;102902.66;5031635;28;20061;-47
2024/02/02 06:20:40;;;;;;;24.08;2.92;;;;;;;10.18;73.18;102911.03;5032550;28;20566;-46
2024/02/02 06:23:05;;;;;;;19.20;3.03;;;;;;;9.95;73.42;102895.13;5032234;28;20033;-48
2024/02/02 06:25:31;;;;;;;21.30;2.85;;;;;;;10.49;72.47;102906.44;5031740;28;20080;-47
2024/02/02 06:27:56;;;;;;;26.75;3.35;;;;;;;10.37;72.67;102909.34;5031587;28;20050;-47
2024/02/02 06:30:21;;;;;;;17.67;2.85;;;;;;;10.64;72.04;102903.59;5031493;28;20037;-47
2024/02/02 06:32:49;;;;;;;21.77;3.58;;;;;;;10.21;73.25;102904.25;5031562;28;20041;-46
2024/02/02 06:35:15;;;;;;;26.23;3.30;;;;;;;10.45;72.74;102915.81;5031507;28;20079;-47
2024/02/02 06:37:40;;;;;;;21.10;4.00;;;;;;;10.17;73.00;102910.13;5031613;28;20099;-48
2024/02/02 06:40:06;;;;;;;21.67;3.33;;;;;;;10.10;73.47;102903.69;5031798;28;20030;-47
2024/02/02 06:42:32;;;;;;;27.27;3.28;;;;;;;10.24;73.34;102904.41;5031154;28;20116;-45
2024/02/02 06:44:57;;;;;;;22.98;3.55;;;;;;;10.29;72.30;102905.50;5030442;28;20075;-47
2024/02/02 06:47:23;;;;;;;16.98;3.03;;;;;;;10.28;72.48;102897.59;5030387;28;20038;-47
2024/02/02 06:49:49;;;;;;;20.35;4.15;;;;;;;10.00;73.33;102892.78;5031225;28;20030;-47
2024/02/02 06:52:16;;;;;;;27.48;4.30;;;;;;;10.03;73.33;102893.81;5031354;28;20044;-47
2024/02/02 06:54:42;;;;;;;26.08;3.88;;;;;;;9.99;73.07;102894.50;5031669;28;20116;-47
2024/02/02 06:57:08;;;;;;;23.58;3.40;;;;;;;10.27;73.01;102893.19;5029685;28;20041;-48
2024/02/02 06:59:33;;;;;;;23.33;3.72;;;;;;;10.55;71.82;102888.44;5031541;28;20409;-48
2024/02/02 07:01:59;;;;;;;21.73;3.28;;;;;;;10.41;72.26;102897.34;5031159;28;20476;-48
2024/02/02 07:04:25;;;;;;;23.52;3.42;;;;;;;10.14;72.58;102899.50;5030032;28;20044;-47
2024/02/02 07:06:51;;;;;;;21.02;3.78;;;;;;;10.18;72.31;102893.69;5030813;28;20677;-49
2024/02/02 07:09:19;;;;;;;23.02;3.58;;;;;;;10.01;73.53;102895.44;5030088;28;20048;-49
2024/02/02 07:11:50;;;;;;;19.52;3.50;;;;;;;10.35;72.87;102899.66;5031164;28;20404;-47
2024/02/02 07:14:42;;;;;;;19.88;3.05;;;;;;;10.23;73.59;102897.38;5030519;28;20043;-47
2024/02/02 07:17:20;;;;;;;21.33;3.90;;;;;;;10.40;72.82;102892.94;5028113;28;20144;-49
2024/02/02 07:19:46;;;;;;;22.38;2.97;;;;;;;10.53;72.49;102893.59;5045738;28;20080;-50
2024/02/02 07:22:38;;;;;;;19.92;3.55;;;;;;;10.46;72.60;102883.69;5030245;28;20041;-52
2024/02/02 07:25:17;;;;;;;20.48;3.20;;;;;;;10.29;72.73;102888.97;5030722;28;20029;-48
2024/02/02 07:27:52;;;;;;;23.30;3.70;;;;;;;10.27;73.67;102891.50;5037594;28;20511;-48
2024/02/02 07:30:55;;;;;;;17.45;2.92;;;;;;;10.23;73.30;102897.38;5030966;28;20048;-46
2024/02/02 07:33:30;;;;;;;23.20;3.40;;;;;;;10.33;73.33;102893.47;5030457;28;20100;-47
2024/02/02 07:35:59;;;;;;;;;;;;;;;10.34;72.95;102900.50;5031045;28;20041;-45
2024/02/02 07:38:49;;;;;;;21.08;3.33;;;;;;;10.47;72.61;102895.91;5029606;28;19913;-49
2024/02/02 07:41:19;;;;;;;23.67;3.53;;;;;;;10.22;73.78;102898.22;5030221;28;20041;-46
2024/02/02 07:43:45;;;;;;;17.98;3.40;;;;;;;10.46;73.23;102898.44;5030448;28;20092;-46
2024/02/02 07:46:12;;;;;;;18.13;3.78;;;;;;;10.21;73.15;102888.59;5030089;28;20052;-48
2024/02/02 07:48:37;;;;;;;26.33;3.20;;;;;;;10.01;74.67;102879.78;5029748;28;20037;-48
2024/02/02 07:51:04;;;;;;;22.17;3.85;;;;;;;10.32;73.67;102876.94;5030429;28;20049;-49
2024/02/02 07:53:30;;;;;;;25.38;3.60;;;;;;;10.39;74.21;102881.63;5029837;28;20076;-47
2024/02/02 07:55:55;;;;;;;24.77;3.47;;;;;;;10.49;73.91;102888.19;5030423;28;20061;-47
2024/02/02 07:58:21;;;;;;;23.85;3.47;;;;;;;10.44;73.40;102881.81;5029392;28;20041;-47
2024/02/02 08:00:52;;;;;;;26.85;3.55;;;;;;;10.61;72.74;102880.91;5030051;28;20679;-49
2024/02/02 08:03:18;;;;;;;21.48;3.67;;;;;;;10.94;71.96;102879.78;5029576;28;20045;-48
2024/02/02 08:05:44;;;;;;;24.60;3.60;;;;;;;10.90;71.91;102884.81;5029947;28;20326;-46
2024/02/02 08:08:09;;;;;;;24.98;3.72;;;;;;;10.67;72.60;102890.72;5029614;28;20075;-49
2024/02/02 08:10:35;;;;;;;23.08;3.67;;;;;;;10.52;73.97;102885.69;5029768;28;20087;-46
2024/02/02 08:13:00;;;;;;;24.52;4.05;;;;;;;10.46;74.92;102886.31;5029992;28;20037;-49
2024/02/02 08:15:26;;;;;;;21.85;3.95;;;;;;;10.66;74.10;102876.78;5028483;28;20038;-48
2024/02/02 08:17:52;;;;;;;24.33;3.80;;;;;;;10.66;74.12;102873.28;5029362;28;20041;-45
2024/02/02 08:20:18;;;;;;;24.67;3.58;;;;;;;10.87;73.00;102861.16;5029304;28;20042;-45
2024/02/02 08:22:45;;;;;;;27.98;3.45;;;;;;;10.79;74.30;102860.84;5029475;28;20037;-50
2024/02/02 08:25:10;;;;;;;25.50;3.60;;;;;;;10.60;75.32;102868.69;5029750;28;20033;-47
2024/02/02 08:27:37;;;;;;;24.38;3.45;;;;;;;11.14;73.35;102853.66;5037237;28;20368;-48
2024/02/02 08:30:05;;;;;;;23.42;3.97;;;;;;;10.79;74.07;102860.84;5029411;28;20037;-50
2024/02/02 08:32:31;;;;;;;27.98;3.67;;;;;;;10.68;74.82;102855.97;5029164;28;20120;-49
2024/02/02 08:34:57;;;;;;;19.42;3.35;;;;;;;10.95;73.61;102852.84;5028373;28;20025;-46
2024/02/02 08:37:22;;;;;;;27.35;3.47;;;;;;;11.32;73.50;102850.09;5028408;28;20393;-50
2024/02/02 08:39:48;;;;;;;27.15;3.60;;;;;;;10.77;75.37;102857.28;5028407;28;20030;-48
2024/02/02 08:42:19;;;;;;;28.65;4.10;;;;;;;10.87;74.77;102850.72;5028912;28;20030;-49
2024/02/02 08:44:45;;;;;;;31.35;4.07;;;;;;;10.73;76.00;102867.50;5029600;28;20431;-50
2024/02/02 08:47:10;;;;;;;22.85;3.55;;;;;;;10.86;75.62;102857.66;5028874;28;20044;-48
2024/02/02 08:49:56;;;;;;;29.73;3.58;;;;;;;11.10;74.85;102850.00;5048959;28;20033;-47
2024/02/02 08:52:31;;;;;;;28.20;3.33;;;;;;;10.73;76.29;102859.69;5048537;28;20151;-50
2024/02/02 08:54:57;;;;;;;27.33;3.72;;;;;;;11.06;75.20;102836.75;5043154;28;20083;-47
2024/02/02 08:57:44;;;;;;;24.63;3.42;;;;;;;11.29;74.11;102836.88;5028765;28;20037;-47
2024/02/02 09:00:23;;;;;;;23.52;3.30;;;;;;;11.27;75.79;102833.34;5029575;28;20052;-47
2024/02/02 09:02:55;;;;;;;24.55;4.20;;;;;;;11.22;74.90;102828.75;5035940;28;20034;-48
2024/02/02 09:05:29;;;;;;;23.70;3.67;;;;;;;11.35;74.83;102823.19;5029492;28;20041;-50
2024/02/02 09:08:04;;;;;;;;;;;;;;;11.48;74.84;102825.47;5029875;28;20065;-42
2024/02/02 09:10:29;;;;;;;23.45;3.70;;;;;;;11.14;75.40;102824.94;5030356;28;19924;-45
2024/02/02 09:13:00;;;;;;;25.83;3.45;;;;;;;11.13;76.30;102826.66;5028870;28;20415;-46
2024/02/02 09:15:27;;;;;;;27.65;3.72;;;;;;;11.53;75.14;102826.56;5030690;28;20059;-47
2024/02/02 09:17:54;;;;;;;30.35;4.13;;;;;;;11.16;77.13;102824.16;5029088;28;20038;-46
2024/02/02 09:20:44;;;;;;;24.48;3.78;;;;;;;11.56;75.30;102829.31;5028926;28;20523;-47
2024/02/02 09:23:11;;;;;;;29.73;4.22;;;;;;;10.89;77.26;102841.25;5029165;28;20038;-46
2024/02/02 09:25:41;;;;;;;24.70;3.33;;;;;;;11.40;76.56;102824.31;5048685;28;20499;-45
2024/02/02 09:28:39;;;;;;;32.17;3.90;;;;;;;11.41;75.85;102828.66;5043758;28;20045;-46
2024/02/02 09:31:09;;;;;;;26.75;4.32;;;;;;;11.02;77.60;102830.53;5022150;28;20038;-47
2024/02/02 09:33:45;;;;;;;30.65;4.20;;;;;;;11.28;77.08;102831.63;5032643;28;20044;-48
2024/02/02 09:36:11;;;;;;;30.80;3.83;;;;;;;11.66;75.70;102830.56;5032792;28;20049;-47
2024/02/02 09:38:37;;;;;;;23.05;3.85;;;;;;;11.70;75.18;102822.03;5048362;28;20025;-48
2024/02/02 09:41:13;;;;;;;26.42;4.00;;;;;;;11.87;75.33;102827.94;5032492;28;20045;-47
2024/02/02 09:44:00;;;;;;;26.90;3.80;;;;;;;11.86;74.79;102832.28;5052212;28;20036;-48
2024/02/02 09:46:59;;;;;;;23.83;3.90;;;;;;;11.79;76.23;102822.41;5041480;28;20040;-49
2024/02/02 09:49:42;;;;;;;28.52;3.88;;;;;;;11.28;77.80;102819.44;5024935;28;20047;-48
2024/02/02 09:52:17;;;;;;;29.25;4.43;;;;;;;12.05;75.69;102819.09;5032857;28;20042;-48
2024/02/02 09:54:51;;;;;;;22.83;3.88;;;;;;;12.33;74.40;102833.19;5039915;28;20111;-46
2024/02/02 09:57:30;;;;;;;26.45;4.18;;;;;;;11.77;76.60;102829.31;5031668;28;20136;-45
2024/02/02 10:00:02;;;;;;;25.80;4.03;;;;;;;12.18;75.61;102829.19;5032713;28;20084;-50
2024/02/02 10:02:43;;;;;;;24.80;4.03;;;;;;;11.98;75.43;102829.25;5032402;28;20528;-48
2024/02/02 10:05:22;;;;;;;24.55;3.67;;;;;;;11.81;77.61;102833.81;5032657;28;20381;-46
2024/02/02 10:08:23;;;;;;;23.60;3.90;;;;;;;11.79;77.29;102828.53;5037634;28;20036;-47
2024/02/02 10:10:54;;;;;;;28.38;4.90;;;;;;;11.79;77.35;102820.69;5031374;28;20037;-51
2024/02/02 10:13:41;;;;;;;21.52;4.05;;;;;;;12.25;75.60;102826.81;5032044;28;20087;-47
2024/02/02 10:16:27;;;;;;;28.73;4.15;;;;;;;12.08;76.19;102819.19;5032569;28;20500;-49
2024/02/02 10:18:58;;;;;;;26.70;4.03;;;;;;;12.38;75.71;102816.81;5038593;28;20038;-48
2024/02/02 10:22:01;;;;;;;32.72;4.90;;;;;;;12.53;74.58;102829.59;5032334;28;20411;-46
2024/02/02 10:24:47;;;;;;;27.63;3.40;;;;;;;12.75;73.65;102832.13;5032443;28;20092;-48
2024/02/02 10:27:50;;;;;;;24.35;4.00;;;;;;;12.95;73.84;102827.59;5031219;28;20403;-48
2024/02/02 10:30:44;;;;;;;24.23;4.13;;;;;;;12.64;74.94;102830.88;5031495;28;20496;-46
2024/02/02 10:33:17;;;;;;;29.08;4.65;;;;;;;12.78;74.42;102826.13;5032312;28;20040;-48
2024/02/02 10:36:08;;;;;;;29.95;4.43;;;;;;;12.30;75.34;102826.13;5047337;28;20045;-50
2024/02/02 10:38:36;;;;;;;26.02;4.28;;;;;;;12.86;73.79;102820.34;5035841;28;20037;-49
2024/02/02 10:41:14;;;;;;;28.75;4.68;;;;;;;12.35;76.61;102821.06;5031502;28;20104;-51
2024/02/02 10:44:08;;;;;;;29.27;5.13;;;;;;;12.47;76.49;102826.75;5035387;28;20410;-48
2024/02/02 10:46:54;;;;;;;31.02;5.50;;;;;;;12.35;75.50;102821.06;5035339;28;20420;-50
2024/02/02 10:49:29;;;;;;;27.52;5.13;;;;;;;12.52;76.25;102817.34;5032315;28;20041;-48
2024/02/02 10:51:57;;;;;;;27.70;5.45;;;;;;;12.64;75.36;102814.28;5033524;28;20029;-47
2024/02/02 10:54:45;;;;;;;25.35;5.50;;;;;;;12.75;74.84;102823.38;5031717;28;20100;-49
2024/02/02 10:57:26;;;;;;;28.42;5.30;;;;;;;12.56;74.90;102837.56;5030821;28;20038;-51
2024/02/02 11:00:13;;;;;;;26.83;5.80;;;;;;;12.36;75.37;102839.44;5046105;28;20408;-50
2024/02/02 11:02:44;;;;;;;26.05;6.03;;;;;;;12.56;75.22;102840.19;5047093;28;20060;-49
2024/02/02 11:05:48;;;;;;;28.60;6.57;;;;;;;12.14;76.72;102853.41;5031503;28;20052;-50
2024/02/02 11:08:20;;;;;;;25.75;6.10;;;;;;;12.25;76.47;102848.63;5019933;28;20041;-49
2024/02/02 11:11:03;;;;;;;28.15;6.97;;;;;;;12.06;76.80;102854.88;5031029;28;20500;-48
2024/02/02 11:14:09;;;;;;;25.77;6.50;;;;;;;12.37;75.87;102854.31;5030510;28;20508;-52
2024/02/02 11:16:34;;;;;;;30.05;6.60;;;;;;;12.20;76.18;102843.19;5030806;28;20037;-47
2024/02/02 11:19:06;;;;;;;24.58;6.63;;;;;;;11.95;77.35;102844.81;5031745;28;20041;-48
2024/02/02 11:21:38;;;;;;;24.20;6.38;;;;;;;11.93;77.34;102838.63;5031053;28;20175;-47
2024/02/02 11:24:21;;;;;;;28.20;7.00;;;;;;;12.36;75.86;102828.09;5031197;28;20041;-49
2024/02/02 11:26:55;;;;;;;26.95;8.07;;;;;;;11.70;77.71;102843.81;5035501;28;20061;-48
2024/02/02 11:29:53;;;;;;;34.63;9.10;;;;;;;11.92;77.66;102849.91;5032139;28;20412;-47